Hawaii METAR Reports

 


Warning: A non-numeric value encountered in /home/dwayneya/public_html/wx/get-metar-conditions-inc.php on line 1016
PHOG - Kahului, Hawaii, USA
Distance from station: WNW 8mi, 13km
Updated: Fri, 12-Apr-2024 1:54pm HST
Mostly Cloudy
Mostly Cloudy
 Wind from varies
Wind: varies 7 mph, 11 km/h
Temperature: 82°F, 28°C
Heat Index: 84°F, 29°C
Dew Point: 66°F, 19°C
Humidity: 58%
Barometer: 29.95 inHg, 1014.2 hPa
Clouds: Mostly Cloudy
Visibility: 10 miles, 16 km
Cloud details: Mostly Cloudy 11000 ft
2024/04/12 23:54 PHOG 122354Z VRB06KT 10SM BKN110 28/19 A2995 RMK AO2 SLP146 60000 T02780194 10278 20228 58040 $
PHJH - Lahaina/West Mau, Hawaii, USA
Distance from station: WNW 24mi, 39km
Updated: Thu, 26-Jan-2023 6:05pm HST
NOT Current
Light drizzle, Partly cloudy
Light drizzle, Partly cloudy
 Wind from NNE
Wind: NNE 13 mph, 20 km/h, Gust: 20 mph, 31 km/h
Barometer: 30.01 inHg, 1016.3 hPa
Summary: Light Drizzle
Clouds: Partly Cloudy
Visibility: S miles, 0 km
Cloud details: Partly Cloudy 1400 ft
Partly Cloudy 2200 ft
Partly Cloudy 3000 ft
2023/01/27 04:05 PHJH 270405Z AUTO 02011G17KT SSM -DZ SCT014 SCT022 SCT030 A3001
 
PHNY - Lanai City Airpo, Hawaii, USA
Distance from station: W 40mi, 65km
Updated: Fri, 12-Apr-2024 1:56pm HST
Clear
Clear
 Wind from SSE
Wind: SSE 9 mph, 15 km/h
Temperature: 75°F, 24°C
Dew Point: 64°F, 18°C
Humidity: 69%
Barometer: 30.04 inHg, 1017.3 hPa
Clouds: Clear
Visibility: 10 miles, 16 km
2024/04/12 23:56 PHNY 122356Z AUTO 15008KT 10SM CLR 24/18 A3004 RMK AO2 SLP151 60000 T02390183 10244 20206 56031
PHMK - Molokai, Hawaii, USA
Distance from station: WNW 55mi, 88km
Updated: Fri, 12-Apr-2024 1:54pm HST
Clear
Clear
 Wind from SSW
Wind: SSW 8 mph, 13 km/h
Temperature: 81°F, 27°C
Heat Index: 83°F, 28°C
Dew Point: 66°F, 19°C
Humidity: 62%
Barometer: 29.99 inHg, 1015.6 hPa
Clouds: Clear
Visibility: 10 miles, 16 km
2024/04/12 23:54 PHMK 122354Z 21007KT 10SM CLR 27/19 A2999 RMK AO2 SLP158 60000 T02720189 10272 20233 56018
 
PHKO - Kailua/Kona, Hawaii, USA
Distance from station: SSE 79mi, 128km
Updated: Fri, 12-Apr-2024 1:53pm HST
Overcast
Overcast
 Wind from SSW
Wind: SSW 12 mph, 19 km/h
Temperature: 79°F, 26°C
Dew Point: 70°F, 21°C
Humidity: 74%
Barometer: 30.00 inHg, 1015.9 hPa
Clouds: Overcast
Visibility: 10 miles, 16 km
Cloud details: Overcast 1800 ft
2024/04/12 23:53 PHKO 122353Z 20010KT 10SM OVC018 26/21 A3000 RMK AO2 SLP158 60000 T02610211 10278 20239 56018 $
PHSF - Bradshaw Aaf/Haw, Hawaii, USA
Distance from station: SE 90mi, 145km
Updated: Fri, 12-Apr-2024 12:55pm HST
NOT Current

 Wind from W
Wind: W 12 mph, 19 km/h
Visibility: 10 miles, 16 km
2024/04/12 22:55 PHSF 122255Z AUTO 26010KT 10SM M 23/08 A3038 RMK AO2 SLP152 T02270084 $
 
PHNG - Kaneohe Mcas, Hawaii, USA
Distance from station: WNW 102mi, 164km
Updated: Fri, 12-Apr-2024 1:57pm HST
Few Clouds
Few Clouds
 Wind from W
Wind: W 5 mph, 7 km/h
Temperature: 81°F, 27°C
Heat Index: 84°F, 29°C
Dew Point: 68°F, 20°C
Humidity: 66%
Barometer: 29.96 inHg, 1014.6 hPa
Clouds: Few Clouds
Visibility: 7 miles, 11 km
Cloud details: Few Clouds 2000 ft
2024/04/12 23:57 PHNG 122357Z 27004KT 7SM FEW020 27/20 A2996 RMK AO2 SLP141 60032 T02720200 10278 20239 58028 $
PHNL - Honolulu, Hawaii, USA
Distance from station: WNW 108mi, 174km
Updated: Fri, 12-Apr-2024 1:53pm HST
Mostly Cloudy
Mostly Cloudy
 Wind from SSE
Wind: SSE 9 mph, 15 km/h
Temperature: 75°F, 24°C
Dew Point: 70°F, 21°C
Humidity: 83%
Barometer: 29.99 inHg, 1015.6 hPa
Clouds: Mostly Cloudy
Visibility: 10 miles, 16 km
Cloud details: Few Clouds 5000 ft
Partly Cloudy 9000 ft
Mostly Cloudy 15000 ft
2024/04/12 23:53 PHNL 122353Z 16008KT 10SM FEW050 SCT090 BKN150 24/21 A2999 RMK AO2 SLP156 60020 T02440206 10261 20211 56016
 
PHTO - Hilo, Hawaii, USA
Distance from station: SE 114mi, 183km
Updated: Fri, 12-Apr-2024 1:53pm HST
Overcast
Overcast
 Wind from ESE
Wind: ESE 13 mph, 20 km/h
Temperature: 73°F, 23°C
Dew Point: 70°F, 21°C
Humidity: 89%
Barometer: 30.04 inHg, 1017.3 hPa
Clouds: Overcast
Visibility: 10 miles, 16 km
Cloud details: Partly Cloudy 1900 ft
Mostly Cloudy 2500 ft
Overcast 4000 ft
2024/04/12 23:53 PHTO 122353Z 12011KT 10SM SCT019 BKN025 OVC040 23/21 A3004 RMK AO2 SLP170 60003 T02330211 10239 20222 58023
PHJR - Kalaeloa, Hawaii, USA
Distance from station: WNW 117mi, 189km
Updated: Fri, 12-Apr-2024 1:53pm HST
Clear
Clear
 Wind from ESE
Wind: ESE 9 mph, 15 km/h
Barometer: 30.00 inHg, 1015.9 hPa
Clouds: Clear
Visibility: 9 miles, 14 km
2024/04/12 23:53 PHJR 122353Z 11008KT 9SM CLR A3000 RMK AO2 SLP167 6//// 58014
 
PHHI - Wheeler Afb/Oahu, Hawaii, USA
Distance from station: WNW 120mi, 193km
Updated: Fri, 12-Apr-2024 12:55pm HST
NOT Current
Few Clouds
Few Clouds
 Wind from SE
Wind: SE 3 mph, 6 km/h
Temperature: 75°F, 24°C
Dew Point: 66°F, 19°C
Humidity: 74%
Barometer: 30.05 inHg, 1017.6 hPa
Clouds: Few Clouds
Visibility: 10 miles, 16 km
Cloud details: Few Clouds 13000 ft
Few Clouds 20000 ft
2024/04/12 22:55 PHHI 122255Z AUTO 13003KT 10SM FEW130 FEW200 24/19 A3005 RMK AO2 SLP167 T02430193 $
PHLI - Lihue/Kauai Is, Hawaii, USA
Distance from station: WNW 209mi, 336km
Updated: Fri, 12-Apr-2024 1:53pm HST
Mostly Cloudy
Mostly Cloudy
 Wind from S
Wind: S 12 mph, 19 km/h
Temperature: 81°F, 27°C
Heat Index: 85°F, 29°C
Dew Point: 70°F, 21°C
Humidity: 70%
Barometer: 29.99 inHg, 1015.6 hPa
Clouds: Mostly Cloudy
Visibility: 10 miles, 16 km
Cloud details: Mostly Cloudy 2100 ft
2024/04/12 23:53 PHLI 122353Z 19010KT 10SM BKN021 27/21 A2999 RMK AO2 SLP152 T02670211 10267 20222 58022 $
 
PHBK - Barking Sands/Ka, Hawaii, USA
Distance from station: WNW 237mi, 382km
Updated: Fri, 12-Apr-2024 1:51pm HST
Clear
Clear
 Wind from SSE
Wind: SSE 22 mph, 35 km/h, Gust: 36 mph, 57 km/h
Temperature: 84°F, 29°C
Heat Index: 88°F, 31°C
Dew Point: 70°F, 21°C
Humidity: 62%
Barometer: 29.95 inHg, 1014.2 hPa
Clouds: Clear
Visibility: 10 miles, 16 km
2024/04/12 23:51 PHBK 122351Z AUTO 16019G31KT 10SM CLR 29/21 A2995 RMK AO2 PK WND 15034/2314 SLP143 T02890206 10306 20239 58018 $